Time;durP1;ratioP1;P1;durP2;ratioP2;P2;SDS_P1;SDS_P2;PMS_P1;PMS_P2;Temp;Humidity;BMP_temperature;BMP_pressure;BME280_temperature;BME280_humidity;BME280_pressure;Samples;Min_cycle;Max_cycle;Signal;HPM_P1;HPM_P2
2023/09/14 00:01:58;;;;;;;;;;;;;;;18.51;77.86;101152.98;105960;1273;62104;-83
2023/09/14 00:04:24;;;;;;;;;;;;;;;18.48;77.77;101152.27;105772;1268;125478;-81
2023/09/14 00:06:51;;;;;;;;;;;;;;;18.47;77.86;101153.17;105787;1268;62008;-82
2023/09/14 00:09:17;;;;;;;;;;;;;;;18.44;77.76;101151.92;106039;1273;62147;-82
2023/09/14 00:11:44;;;;;;;;;;;;;;;18.42;77.79;101153.52;105804;1273;125141;-83
2023/09/14 00:14:10;;;;;;;;;;;;;;;18.40;77.81;101158.86;105964;1273;62758;-81
2023/09/14 00:16:37;;;;;;;;;;;;;;;18.37;77.80;101152.83;105813;1270;126365;-81
2023/09/14 00:19:03;;;;;;;;;;;;;;;18.33;77.87;101154.95;105750;1270;62260;-82
2023/09/14 00:21:30;;;;;;;;;;;;;;;18.30;77.95;101154.25;105941;1268;61243;-83
2023/09/14 00:23:57;;;;;;;;;;;;;;;18.28;78.12;101150.51;105856;1268;125175;-82
2023/09/14 00:26:24;;;;;;;;;;;;;;;18.28;78.27;101155.13;105807;1272;60295;-82
2023/09/14 00:28:51;;;;;;;;;;;;;;;18.25;78.38;101151.94;105663;1273;125829;-82
2023/09/14 00:31:17;;;;;;;;;;;;;;;18.18;78.55;101152.27;105952;1283;76024;-82
2023/09/14 00:33:44;;;;;;;;;;;;;;;18.13;78.89;101153.73;105814;1275;62021;-83
2023/09/14 00:36:10;;;;;;;;;;;;;;;18.12;79.18;101151.77;105746;1273;125007;-83
2023/09/14 00:38:37;;;;;;;;;;;;;;;18.11;79.32;101157.45;105711;1270;62076;-82
2023/09/14 00:41:03;;;;;;;;;;;;;;;18.09;79.38;101158.49;105899;1270;125241;-82
2023/09/14 00:43:30;;;;;;;;;;;;;;;18.06;79.46;101156.55;105954;1269;62053;-82
2023/09/14 00:45:56;;;;;;;;;;;;;;;18.03;79.55;101158.86;105842;1268;125986;-83
2023/09/14 00:48:23;;;;;;;;;;;;;;;18.03;79.85;101155.31;105995;1272;61997;-83
2023/09/14 00:50:49;;;;;;;;;;;;;;;18.01;79.87;101154.06;106060;1272;62120;-83
2023/09/14 00:53:16;;;;;;;;;;;;;;;18.01;79.88;101157.61;105883;1273;125111;-81
2023/09/14 00:55:43;;;;;;;;;;;;;;;17.98;79.96;101159.74;105933;1273;62160;-82
2023/09/14 00:58:14;;;;;;;;;;;;;;;17.94;80.01;101158.31;105812;1273;125622;-83
2023/09/14 01:00:42;;;;;;;;;;;;;;;17.91;80.04;101152.09;105996;1272;71483;-83
2023/09/14 01:03:11;;;;;;;;;;;;;;;17.87;80.10;101155.10;105860;1273;60881;-83
2023/09/14 01:05:38;;;;;;;;;;;;;;;17.82;80.20;101152.77;105687;1270;125789;-83
2023/09/14 01:08:05;;;;;;;;;;;;;;;17.80;80.32;101153.29;105786;1272;61971;-82
2023/09/14 01:10:31;;;;;;;;;;;;;;;17.80;80.36;101151.52;105722;1270;125998;-82
2023/09/14 01:12:58;;;;;;;;;;;;;;;17.81;80.46;101158.27;105871;1270;60423;-82
2023/09/14 01:15:36;;;;;;;;;;;;;;;17.83;80.41;101159.50;105839;1270;60433;-81
2023/09/14 01:18:11;;;;;;;;;;;;;;;17.82;80.47;101165.73;105895;1273;125989;-82
2023/09/14 01:20:51;;;;;;;;;;;;;;;17.83;80.45;101163.05;105885;1270;77096;-82
2023/09/14 01:23:30;;;;;;;;;;;;;;;17.83;80.38;101163.59;105917;1272;127011;-82
2023/09/14 01:25:57;;;;;;;;;;;;;;;17.84;80.39;101165.91;105864;1272;73177;-82
2023/09/14 01:28:23;;;;;;;;;;;;;;;17.86;80.42;101170.02;105666;1274;125546;-81
2023/09/14 01:30:50;;;;;;;;;;;;;;;17.86;80.42;101173.58;105860;1270;62136;-80
2023/09/14 01:33:17;;;;;;;;;;;;;;;17.86;80.41;101174.29;105973;1270;62232;-81
2023/09/14 01:36:06;;;;;;;;;;;;;;;17.84;80.41;101176.58;105804;1270;125388;-81
2023/09/14 01:38:32;;;;;;;;;;;;;;;17.80;80.43;101176.54;105900;1273;72815;-81
2023/09/14 01:40:59;;;;;;;;;;;;;;;17.80;80.49;101184.89;105810;1270;126459;-81
2023/09/14 01:43:25;;;;;;;;;;;;;;;17.78;80.52;101182.58;106087;1273;62066;-82
2023/09/14 01:45:52;;;;;;;;;;;;;;;17.79;80.61;101191.98;106088;1272;62067;-82
2023/09/14 01:48:19;;;;;;;;;;;;;;;17.75;80.56;101193.23;105901;1270;65994;-82
2023/09/14 01:50:46;;;;;;;;;;;;;;;17.73;80.67;101193.75;105977;1267;72997;-82
2023/09/14 01:53:12;;;;;;;;;;;;;;;17.74;80.81;101196.77;105833;1270;125574;-82
2023/09/14 01:55:39;;;;;;;;;;;;;;;17.75;80.96;101196.95;105914;1270;60550;-82
2023/09/14 01:58:06;;;;;;;;;;;;;;;17.72;80.97;101191.61;105965;1270;125436;-82
2023/09/14 02:00:32;;;;;;;;;;;;;;;17.67;81.15;101196.56;106029;1270;66360;-82
2023/09/14 02:02:59;;;;;;;;;;;;;;;17.66;81.41;101198.88;105877;1274;72545;-82
2023/09/14 02:05:26;;;;;;;;;;;;;;;17.66;81.53;101200.29;105779;1269;125936;-83
2023/09/14 02:07:52;;;;;;;;;;;;;;;17.64;81.46;101203.66;105925;1273;62158;-81
2023/09/14 02:10:21;;;;;;;;;;;;;;;17.60;81.66;101206.84;105844;1270;125402;-80
2023/09/14 02:12:48;;;;;;;;;;;;;;;17.57;81.62;101208.78;106005;1271;64987;-81
2023/09/14 02:15:15;;;;;;;;;;;;;;;17.56;81.83;101206.30;105865;1270;71437;-82
2023/09/14 02:17:42;;;;;;;;;;;;;;;17.55;81.86;101208.95;105852;1273;127328;-82
2023/09/14 02:20:08;;;;;;;;;;;;;;;17.54;81.68;101209.13;105866;1270;62130;-83
2023/09/14 02:22:35;;;;;;;;;;;;;;;17.54;81.51;101212.14;105858;1268;126001;-82
2023/09/14 02:25:02;;;;;;;;;;;;;;;17.54;81.50;101209.32;105817;1270;62248;-83
2023/09/14 02:27:28;;;;;;;;;;;;;;;17.55;81.28;101207.36;105798;1270;71441;-82
2023/09/14 02:29:55;;;;;;;;;;;;;;;17.57;81.26;101203.98;106034;1270;125415;-81
2023/09/14 02:32:21;;;;;;;;;;;;;;;17.59;81.19;101208.08;106131;1268;62018;-80
2023/09/14 02:34:48;;;;;;;;;;;;;;;17.58;81.01;101205.95;105968;1273;125297;-83
2023/09/14 02:37:14;;;;;;;;;;;;;;;17.52;80.78;101209.84;106003;1273;62098;-79
2023/09/14 02:39:41;;;;;;;;;;;;;;;17.44;80.75;101210.16;105857;1270;62059;-81
2023/09/14 02:42:07;;;;;;;;;;;;;;;17.37;80.67;101219.34;105748;1270;126124;-81
2023/09/14 02:44:37;;;;;;;;;;;;;;;17.28;80.72;101221.44;106122;1268;62251;-80
2023/09/14 02:47:04;;;;;;;;;;;;;;;17.24;80.99;101219.80;105741;1270;126084;-82
2023/09/14 02:49:30;;;;;;;;;;;;;;;17.21;81.16;101225.13;105877;1274;62207;-80
2023/09/14 02:51:57;;;;;;;;;;;;;;;17.19;81.06;101228.31;105964;1273;126146;-81
2023/09/14 02:54:23;;;;;;;;;;;;;;;17.14;81.01;101230.59;106020;1270;62212;-81
2023/09/14 02:56:50;;;;;;;;;;;;;;;17.08;81.03;101237.83;106067;1273;63574;-81
2023/09/14 02:59:16;;;;;;;;;;;;;;;17.02;81.11;101237.25;105848;1268;125621;-81
2023/09/14 03:01:44;;;;;;;;;;;;;;;16.96;81.12;101239.88;105918;1272;65055;-81
2023/09/14 03:04:12;;;;;;;;;;;;;;;16.88;81.27;101238.75;105596;1270;125957;-81
2023/09/14 03:06:38;;;;;;;;;;;;;;;16.81;81.41;101240.98;105744;1270;62074;-81
2023/09/14 03:09:05;;;;;;;;;;;;;;;16.75;81.52;101244.11;106016;1270;62018;-81
2023/09/14 03:11:32;;;;;;;;;;;;;;;16.73;81.69;101244.27;105933;1269;125304;-81
2023/09/14 03:13:58;;;;;;;;;;;;;;;16.71;81.81;101242.86;106021;1268;62257;-81
2023/09/14 03:16:25;;;;;;;;;;;;;;;16.69;81.87;101250.11;105941;1270;126496;-81
2023/09/14 03:18:52;;;;;;;;;;;;;;;16.69;82.01;101252.05;105865;1275;62027;-81
2023/09/14 03:21:22;;;;;;;;;;;;;;;16.67;81.97;101258.06;106053;1269;61999;-81
2023/09/14 03:23:49;;;;;;;;;;;;;;;16.64;82.02;101264.59;105846;1273;126233;-81
2023/09/14 03:26:15;;;;;;;;;;;;;;;16.60;82.06;101261.73;106005;1268;64928;-81
2023/09/14 03:28:42;;;;;;;;;;;;;;;16.55;82.20;101260.27;105932;1268;125343;-81
2023/09/14 03:31:09;;;;;;;;;;;;;;;16.55;82.48;101267.17;106015;1269;62001;-81
2023/09/14 03:33:35;;;;;;;;;;;;;;;16.53;82.47;101267.70;105894;1276;62078;-80
2023/09/14 03:36:02;;;;;;;;;;;;;;;16.50;82.53;101270.50;105813;1269;125753;-81
2023/09/14 03:38:28;;;;;;;;;;;;;;;16.47;82.61;101273.48;105981;1269;64824;-83
2023/09/14 03:40:55;;;;;;;;;;;;;;;16.47;82.82;101283.05;105718;1268;125561;-83
2023/09/14 03:43:21;;;;;;;;;;;;;;;16.50;83.02;101282.89;105904;1268;62125;-82
2023/09/14 03:45:48;;;;;;;;;;;;;;;16.48;82.92;101280.59;105793;1268;61946;-84
2023/09/14 03:48:14;;;;;;;;;;;;;;;16.45;82.93;101282.14;105952;1270;125365;-82
2023/09/14 03:50:41;;;;;;;;;;;;;;;16.41;82.90;101285.99;105962;1270;62072;-84
2023/09/14 03:53:09;;;;;;;;;;;;;;;16.38;82.99;101292.70;105747;1268;125234;-85
2023/09/14 03:55:36;;;;;;;;;;;;;;;16.36;83.17;101293.92;105900;1268;62092;-85
2023/09/14 03:58:03;;;;;;;;;;;;;;;16.34;83.29;101296.91;105732;1268;125323;-84
2023/09/14 04:00:29;;;;;;;;;;;;;;;16.33;83.34;101304.35;105980;1267;60518;-84
2023/09/14 04:02:56;;;;;;;;;;;;;;;16.32;83.40;101306.45;105796;1270;66253;-84
2023/09/14 04:05:22;;;;;;;;;;;;;;;16.30;83.51;101308.56;105881;1270;125354;-82
2023/09/14 04:07:49;;;;;;;;;;;;;;;16.30;83.52;101309.98;105816;1271;62014;-85
2023/09/14 04:10:17;;;;;;;;;;;;;;;16.29;83.62;101312.98;105780;1274;125454;-85
2023/09/14 04:12:44;;;;;;;;;;;;;;;16.28;83.71;101313.86;105871;1270;75555;-86
2023/09/14 04:15:10;;;;;;;;;;;;;;;16.28;83.80;101317.94;105913;1267;65263;-86
2023/09/14 04:17:37;;;;;;;;;;;;;;;16.29;83.84;101324.13;105756;1270;125759;-83
2023/09/14 04:20:09;;;;;;;;;;;;;;;16.29;83.91;101328.03;105764;1270;62140;-83
2023/09/14 04:22:36;;;;;;;;;;;;;;;16.30;83.92;101329.99;105815;1267;125568;-84
2023/09/14 04:25:03;;;;;;;;;;;;;;;16.30;84.00;101329.82;105971;1273;75482;-82
2023/09/14 04:27:30;;;;;;;;;;;;;;;16.31;84.04;101335.14;105742;1270;65083;-83
2023/09/14 04:29:57;;;;;;;;;;;;;;;16.33;84.02;101334.81;105724;1267;125559;-85
2023/09/14 04:32:23;;;;;;;;;;;;;;;16.34;84.11;101334.98;105675;1267;61922;-91
2023/09/14 04:34:50;;;;;;;;;;;;;;;16.36;84.07;101337.14;105808;1273;127571;-80
2023/09/14 04:37:17;;;;;;;;;;;;;;;16.36;84.11;101337.85;105991;1268;75542;-80
2023/09/14 04:39:45;;;;;;;;;;;;;;;16.37;84.07;101339.09;105990;1268;66410;-80
2023/09/14 04:42:12;;;;;;;;;;;;;;;16.39;84.11;101341.42;104836;1275;125623;-78
2023/09/14 04:44:38;;;;;;;;;;;;;;;16.42;84.19;101344.83;104966;1272;62221;-77
2023/09/14 04:47:05;;;;;;;;;;;;;;;16.47;84.30;101349.48;105380;1273;125446;-77
2023/09/14 04:49:31;;;;;;;;;;;;;;;16.54;84.32;101348.48;105156;1273;73572;-77
2023/09/14 04:51:58;;;;;;;;;;;;;;;16.60;84.18;101354.92;104973;1273;125559;-77
2023/09/14 04:54:24;;;;;;;;;;;;;;;16.64;84.17;101359.40;105130;1269;62178;-77
2023/09/14 04:56:51;;;;;;;;;;;;;;;16.71;84.23;101357.68;105240;1267;62030;-76
2023/09/14 04:59:17;;;;;;;;;;;;;;;16.76;84.17;101356.14;104986;1271;125575;-77
2023/09/14 05:01:44;;;;;;;;;;;;;;;16.81;84.16;101357.62;105135;1268;62141;-77
2023/09/14 05:04:10;;;;;;;;;;;;;;;16.89;84.18;101360.36;105045;1273;125852;-78
2023/09/14 05:06:37;;;;;;;;;;;;;;;16.97;84.17;101360.78;105179;1273;62191;-78
2023/09/14 05:09:03;;;;;;;;;;;;;;;17.06;84.12;101367.25;105103;1273;62009;-78
2023/09/14 05:11:30;;;;;;;;;;;;;;;17.15;84.05;101371.92;105397;1270;126425;-79
2023/09/14 05:13:56;;;;;;;;;;;;;;;17.22;83.91;101374.29;105107;1273;62082;-78
2023/09/14 05:16:23;;;;;;;;;;;;;;;17.29;83.78;101370.61;105123;1270;125363;-79
2023/09/14 05:18:49;;;;;;;;;;;;;;;17.36;83.62;101375.82;105146;1276;62279;-78
2023/09/14 05:21:16;;;;;;;;;;;;;;;17.42;83.56;101376.92;105288;1270;62161;-83
2023/09/14 05:23:45;;;;;;;;;;;;;;;17.49;83.48;101379.27;105894;1268;125474;-83
2023/09/14 05:26:30;;;;;;;;;;;;;;;17.56;83.43;101384.10;105686;1269;75544;-90
2023/09/14 05:28:58;;;;;;;;;;;;;;;17.62;83.33;101385.04;105688;1268;125453;-89
2023/09/14 05:31:24;;;;;;;;;;;;;;;17.71;83.27;101391.11;105675;1268;72659;-89
2023/09/14 05:33:51;;;;;;;;;;;;;;;17.81;83.24;101395.80;105761;1270;62136;-89
2023/09/14 05:36:17;;;;;;;;;;;;;;;17.92;83.16;101400.51;105718;1268;125560;-88
2023/09/14 05:38:46;;;;;;;;;;;;;;;17.99;82.97;101407.64;105761;1268;75530;-88
2023/09/14 05:41:13;;;;;;;;;;;;;;;18.03;82.78;101406.95;105528;1268;126339;-90
2023/09/14 05:43:39;;;;;;;;;;;;;;;18.06;82.74;101413.36;105712;1268;62028;-88
2023/09/14 05:46:06;;;;;;;;;;;;;;;18.09;82.62;101415.50;105722;1268;125513;-88
2023/09/14 05:48:33;;;;;;;;;;;;;;;18.14;82.66;101419.78;105737;1268;62021;-87
2023/09/14 05:51:00;;;;;;;;;;;;;;;18.19;82.49;101422.64;105769;1273;74502;-88
2023/09/14 05:53:27;;;;;;;;;;;;;;;18.26;82.60;101425.70;105712;1268;125353;-88
2023/09/14 05:55:54;;;;;;;;;;;;;;;18.30;82.33;101436.55;105790;1270;71921;-89
2023/09/14 05:58:21;;;;;;;;;;;;;;;18.25;81.93;101438.13;105556;1273;125771;-89
2023/09/14 06:00:48;;;;;;;;;;;;;;;18.15;81.88;101443.59;105636;1269;62114;-88
2023/09/14 06:03:14;;;;;;;;;;;;;;;18.00;82.06;101447.59;105720;1267;75527;-88
2023/09/14 06:05:41;;;;;;;;;;;;;;;17.91;82.41;101443.27;105616;1268;125238;-88
2023/09/14 06:08:08;;;;;;;;;;;;;;;17.85;82.35;101441.64;106046;1270;71475;-88
2023/09/14 06:10:34;;;;;;;;;;;;;;;17.83;82.58;101437.52;105885;1274;125470;-88
2023/09/14 06:13:01;;;;;;;;;;;;;;;17.87;82.67;101439.71;105825;1268;60520;-89
2023/09/14 06:15:27;;;;;;;;;;;;;;;17.98;82.99;101439.24;105822;1269;75498;-89
2023/09/14 06:17:54;;;;;;;;;;;;;;;18.19;83.10;101441.66;105484;1268;125412;-89
2023/09/14 06:20:21;;;;;;;;;;;;;;;18.39;83.02;101444.76;105747;1268;62010;-88
2023/09/14 06:22:47;;;;;;;;;;;;;;;18.54;82.75;101449.27;105466;1269;125298;-91
2023/09/14 06:25:14;;;;;;;;;;;;;;;18.69;82.61;101450.73;105863;1270;62121;-88
2023/09/14 06:27:40;;;;;;;;;;;;;;;18.77;82.17;101449.31;105936;1268;75643;-88
2023/09/14 06:30:08;;;;;;;;;;;;;;;18.80;82.03;101449.35;105863;1268;125201;-91
2023/09/14 06:32:34;;;;;;;;;;;;;;;18.87;82.01;101450.09;105678;1268;72758;-87
2023/09/14 06:35:01;;;;;;;;;;;;;;;18.98;82.13;101447.79;105797;1272;125287;-88
2023/09/14 06:37:28;;;;;;;;;;;;;;;19.11;81.99;101451.18;105839;1268;61768;-89
2023/09/14 06:39:54;;;;;;;;;;;;;;;19.13;81.48;101453.67;105495;1268;125309;-91
2023/09/14 06:42:21;;;;;;;;;;;;;;;19.14;81.44;101457.77;105586;1268;62196;-91
2023/09/14 06:44:47;;;;;;;;;;;;;;;19.17;81.37;101465.61;105825;1269;62087;-90
2023/09/14 06:47:14;;;;;;;;;;;;;;;19.14;81.18;101470.40;105604;1268;125317;-88
2023/09/14 06:49:41;;;;;;;;;;;;;;;19.15;81.14;101476.98;105618;1273;62196;-89
2023/09/14 06:52:07;;;;;;;;;;;;;;;19.15;80.80;101487.86;105630;1267;125420;-89
2023/09/14 06:54:34;;;;;;;;;;;;;;;19.10;80.53;101493.71;105648;1276;62095;-89
2023/09/14 06:57:00;;;;;;;;;;;;;;;19.05;80.42;101497.98;105919;1268;63669;-88
2023/09/14 06:59:27;;;;;;;;;;;;;;;18.94;79.94;101502.75;105646;1269;126209;-90
2023/09/14 07:01:54;;;;;;;;;;;;;;;18.78;80.10;101498.77;105506;1268;61696;-89
2023/09/14 07:04:20;;;;;;;;;;;;;;;18.69;80.26;101504.06;105480;1268;125976;-90
2023/09/14 07:06:47;;;;;;;;;;;;;;;18.56;80.39;101513.25;105715;1268;66501;-89
2023/09/14 07:09:13;;;;;;;;;;;;;;;18.42;80.79;101515.86;105427;1267;72782;-90
2023/09/14 07:11:40;;;;;;;;;;;;;;;18.35;81.04;101515.09;105671;1274;125525;-89
2023/09/14 07:14:07;;;;;;;;;;;;;;;18.28;81.13;101520.58;105804;1267;62171;-87
2023/09/14 07:16:34;;;;;;;;;;;;;;;18.27;81.51;101525.73;105940;1267;126409;-87
2023/09/14 07:19:02;;;;;;;;;;;;;;;18.31;81.71;101528.23;105888;1270;64731;-87
2023/09/14 07:21:32;;;;;;;;;;;;;;;18.31;81.61;101528.77;105812;1268;72745;-89
2023/09/14 07:23:59;;;;;;;;;;;;;;;18.32;81.74;101529.13;105641;1270;125470;-89
2023/09/14 07:26:26;;;;;;;;;;;;;;;18.37;81.85;101529.68;105871;1270;62187;-89
2023/09/14 07:28:53;;;;;;;;;;;;;;;18.38;81.62;101533.07;105659;1267;125559;-89
2023/09/14 07:31:19;;;;;;;;;;;;;;;18.40;81.70;101527.05;105853;1268;65074;-90
2023/09/14 07:33:46;;;;;;;;;;;;;;;18.50;81.69;101538.45;105673;1270;72716;-90
2023/09/14 07:36:12;;;;;;;;;;;;;;;18.54;81.36;101534.58;105672;1268;125200;-89
2023/09/14 07:38:39;;;;;;;;;;;;;;;18.53;81.23;101541.16;105698;1270;62021;-89
2023/09/14 07:41:06;;;;;;;;;;;;;;;18.58;81.14;101544.90;105788;1267;125292;-89
2023/09/14 07:43:32;;;;;;;;;;;;;;;18.62;80.91;101545.09;105900;1268;66369;-89
2023/09/14 07:45:59;;;;;;;;;;;;;;;18.70;80.88;101544.60;105486;1268;213702;-87
2023/09/14 07:48:25;;;;;;;;;;;;;;;18.86;81.10;101549.32;105651;1268;62094;-88
2023/09/14 07:50:52;;;;;;;;;;;;;;;18.98;80.62;101548.12;105791;1270;62152;-89
2023/09/14 07:53:19;;;;;;;;;;;;;;;19.08;80.64;101548.85;105494;1268;125321;-88
2023/09/14 07:55:52;;;;;;;;;;;;;;;19.17;80.49;101554.57;105891;1268;66303;-90
2023/09/14 07:58:22;;;;;;;;;;;;;;;19.22;80.24;101560.45;105923;1272;125599;-90
2023/09/14 08:00:58;;;;;;;;;;;;;;;19.20;80.01;101563.64;105849;1269;62202;-89
2023/09/14 08:03:29;;;;;;;;;;;;;;;19.19;79.84;101565.96;105802;1269;62283;-88
2023/09/14 08:05:56;;;;;;;;;;;;;;;19.29;80.20;101572.20;105985;1268;125195;-90
2023/09/14 08:08:23;;;;;;;;;;;;;;;19.41;80.14;101573.11;105718;1268;65125;-88
2023/09/14 08:10:50;;;;;;;;;;;;;;;19.48;79.65;101578.30;105736;1267;125235;-89
2023/09/14 08:13:16;;;;;;;;;;;;;;;19.47;79.51;101578.83;105837;1267;60198;-88
2023/09/14 08:15:43;;;;;;;;;;;;;;;19.55;79.48;101578.84;105813;1271;61970;-90
2023/09/14 08:18:10;;;;;;;;;;;;;;;19.68;79.32;101575.29;105730;1273;125661;-87
2023/09/14 08:20:37;;;;;;;;;;;;;;;19.83;79.27;101579.59;105918;1267;66365;-91
2023/09/14 08:23:04;;;;;;;;;;;;;;;20.01;78.94;101577.45;105642;1268;124987;-89
2023/09/14 08:25:31;;;;;;;;;;;;;;;20.20;78.55;101578.49;105782;1268;62116;-89
2023/09/14 08:27:58;;;;;;;;;;;;;;;20.27;78.13;101577.59;105779;1268;124640;-89
2023/09/14 08:30:25;;;;;;;;;;;;;;;20.36;77.79;101577.92;105684;1270;75477;-91
2023/09/14 08:32:52;;;;;;;;;;;;;;;20.43;77.26;101581.48;105370;1267;66750;-90
2023/09/14 08:35:23;;;;;;;;;;;;;;;20.51;76.76;101585.39;105698;1274;125534;-89
2023/09/14 08:37:51;;;;;;;;;;;;;;;20.54;76.60;101587.15;105790;1267;62123;-89
2023/09/14 08:40:18;;;;;;;;;;;;;;;20.68;76.75;101588.93;105672;1267;125444;-89
2023/09/14 08:42:47;;;;;;;;;;;;;;;20.78;76.32;101589.77;105702;1268;75536;-90
2023/09/14 08:45:14;;;;;;;;;;;;;;;20.77;75.91;101590.15;105566;1267;63767;-90
2023/09/14 08:47:41;;;;;;;;;;;;;;;20.72;75.46;101596.05;105684;1268;125419;-89
2023/09/14 08:50:07;;;;;;;;;;;;;;;20.62;75.18;101599.81;105746;1267;62022;-89
2023/09/14 08:52:34;;;;;;;;;;;;;;;20.50;74.88;101602.32;105562;1275;124676;-89
2023/09/14 08:55:01;;;;;;;;;;;;;;;20.43;74.51;101604.48;105604;1268;75233;-89
2023/09/14 08:57:27;;;;;;;;;;;;;;;20.33;73.99;101609.14;105636;1268;65107;-89
2023/09/14 08:59:55;;;;;;;;;;;;;;;20.24;73.78;101616.27;105504;1267;125760;-90
2023/09/14 09:02:22;;;;;;;;;;;;;;;20.10;72.90;101615.94;105636;1273;62117;-90
2023/09/14 09:04:48;;;;;;;;;;;;;;;19.95;73.13;101617.17;105585;1268;124510;-89
2023/09/14 09:07:15;;;;;;;;;;;;;;;19.88;73.30;101621.27;105695;1270;62094;-91
2023/09/14 09:09:41;;;;;;;;;;;;;;;19.84;73.15;101623.59;105718;1268;65170;-91
2023/09/14 09:12:08;;;;;;;;;;;;;;;19.87;73.19;101622.34;105579;1268;124602;-90
2023/09/14 09:14:34;;;;;;;;;;;;;;;19.99;73.40;101615.58;105553;1276;62495;-89
2023/09/14 09:17:01;;;;;;;;;;;;;;;20.22;73.65;101621.98;105548;1270;125164;-90
2023/09/14 09:19:28;;;;;;;;;;;;;;;20.46;73.47;101624.08;105889;1268;75527;-89
2023/09/14 09:21:57;;;;;;;;;;;;;;;20.69;73.08;101631.56;105765;1267;66725;-90
2023/09/14 09:24:27;;;;;;;;;;;;;;;20.85;72.31;101630.42;105695;1270;73474;-85
2023/09/14 09:26:55;;;;;;;;;;;;;;;20.95;71.97;101637.89;105765;1268;60140;-87
2023/09/14 09:29:26;;;;;;;;;;;;;;;20.98;70.94;101637.35;105794;1269;124432;-85
2023/09/14 09:32:20;;;;;;;;;;;;;;;20.97;70.28;101642.86;105799;1268;75381;-85
2023/09/14 09:34:46;;;;;;;;;;;;;;;20.95;69.96;101646.27;105913;1267;124594;-85
2023/09/14 09:37:13;;;;;;;;;;;;;;;20.92;70.18;101645.56;106029;1268;62148;-85
2023/09/14 09:39:40;;;;;;;;;;;;;;;20.97;70.05;101649.83;105855;1270;60835;-85
2023/09/14 09:42:11;;;;;;;;;;;;;;;20.97;70.16;101642.34;105700;1268;124545;-85
2023/09/14 09:44:42;;;;;;;;;;;;;;;21.10;70.49;101645.50;105553;1268;76556;-86
2023/09/14 09:47:16;;;;;;;;;;;;;;;21.34;70.41;101649.67;105819;1271;124623;-85
2023/09/14 09:49:42;;;;;;;;;;;;;;;21.45;69.42;101653.02;105806;1268;72576;-87
2023/09/14 09:52:10;;;;;;;;;;;;;;;21.39;68.99;101647.86;105851;1268;124790;-87
2023/09/14 09:54:47;;;;;;;;;;;;;;;21.34;68.75;101650.55;105765;1267;62194;-85
2023/09/14 09:57:15;;;;;;;;;;;;;;;21.33;68.60;101651.11;105742;1268;62085;-85
2023/09/14 09:59:44;;;;;;;;;;;;;;;21.44;68.68;101656.78;105816;1267;124448;-86
2023/09/14 10:02:13;;;;;;;;;;;;;;;21.50;68.21;101659.08;105716;1268;72729;-85
2023/09/14 10:04:39;;;;;;;;;;;;;;;21.51;67.59;101659.44;105825;1268;124747;-88
2023/09/14 10:07:09;;;;;;;;;;;;;;;21.49;67.27;101657.30;105637;1275;62038;-85
2023/09/14 10:09:35;;;;;;;;;;;;;;;21.36;66.62;101660.55;105961;1268;75475;-85
2023/09/14 10:12:03;;;;;;;;;;;;;;;21.24;66.72;101661.34;105723;1268;124612;-85
2023/09/14 10:14:29;;;;;;;;;;;;;;;21.10;66.28;101667.28;105827;1267;72884;-85
2023/09/14 10:16:56;;;;;;;;;;;;;;;20.91;66.10;101667.35;105897;1268;125144;-85
2023/09/14 10:19:23;;;;;;;;;;;;;;;20.88;66.46;101664.67;105933;1268;62044;-85
2023/09/14 10:21:49;;;;;;;;;;;;;;;21.01;66.87;101665.52;105712;1267;61978;-85
2023/09/14 10:24:16;;;;;;;;;;;;;;;21.11;66.67;101662.10;105723;1268;124606;-87
2023/09/14 10:26:42;;;;;;;;;;;;;;;21.21;66.31;101668.83;105881;1268;62113;-85
2023/09/14 10:29:09;;;;;;;;;;;;;;;21.31;66.05;101667.18;105643;1269;124554;-85
2023/09/14 10:31:35;;;;;;;;;;;;;;;21.22;64.89;101666.68;105681;1276;62145;-85
2023/09/14 10:34:08;;;;;;;;;;;;;;;21.05;64.84;101669.96;105647;1268;125133;-85
2023/09/14 10:36:35;;;;;;;;;;;;;;;20.96;65.06;101665.00;105786;1267;64738;-85
2023/09/14 10:39:09;;;;;;;;;;;;;;;20.93;65.32;101668.77;105680;1267;71299;-85
2023/09/14 10:41:36;;;;;;;;;;;;;;;20.89;65.03;101674.31;105757;1270;124423;-85
2023/09/14 10:44:07;;;;;;;;;;;;;;;20.98;65.52;101676.06;105897;1273;62108;-85
2023/09/14 10:46:36;;;;;;;;;;;;;;;21.06;65.39;101676.92;105872;1267;124636;-85
2023/09/14 10:49:02;;;;;;;;;;;;;;;20.99;64.90;101679.09;105686;1276;66023;-86
2023/09/14 10:51:32;;;;;;;;;;;;;;;20.89;64.70;101686.44;105743;1268;72446;-86
2023/09/14 10:54:00;;;;;;;;;;;;;;;20.85;64.75;101683.77;105681;1268;124866;-90
2023/09/14 10:56:31;;;;;;;;;;;;;;;20.93;64.69;101693.39;105678;1274;62096;-85
2023/09/14 10:58:57;;;;;;;;;;;;;;;21.08;64.62;101695.13;105754;1270;124721;-86
2023/09/14 11:01:24;;;;;;;;;;;;;;;21.24;64.51;101692.03;105860;1273;66031;-86
2023/09/14 11:04:07;;;;;;;;;;;;;;;21.35;63.58;101697.33;105875;1268;71928;-87
2023/09/14 11:06:43;;;;;;;;;;;;;;;21.31;63.24;101696.81;105797;1270;61998;-90
2023/09/14 11:09:09;;;;;;;;;;;;;;;21.29;63.14;101700.04;105815;1268;62207;-87
2023/09/14 11:11:46;;;;;;;;;;;;;;;21.22;63.44;101704.34;105487;1268;124615;-89
2023/09/14 11:14:13;;;;;;;;;;;;;;;21.16;63.50;101699.91;105675;1268;66099;-89
2023/09/14 11:16:44;;;;;;;;;;;;;;;21.20;63.84;101702.58;105773;1273;124790;-89
2023/09/14 11:19:11;;;;;;;;;;;;;;;21.24;63.73;101706.30;105600;1271;62120;-88
2023/09/14 11:21:42;;;;;;;;;;;;;;;21.29;63.55;101705.76;105551;1270;62202;-89
2023/09/14 11:24:12;;;;;;;;;;;;;;;21.26;63.27;101712.36;105558;1268;124534;-89
2023/09/14 11:26:44;;;;;;;;;;;;;;;21.11;63.04;101712.77;105722;1276;64752;-89
2023/09/14 11:29:11;;;;;;;;;;;;;;;20.86;62.89;101714.45;105511;1269;124457;-89
2023/09/14 11:31:39;;;;;;;;;;;;;;;20.66;63.01;101717.34;105742;1268;62110;-90
2023/09/14 11:34:07;;;;;;;;;;;;;;;20.54;63.21;101711.08;105805;1268;62117;-89
2023/09/14 11:36:34;;;;;;;;;;;;;;;20.50;63.29;101712.87;105749;1268;74173;-90
2023/09/14 11:39:08;;;;;;;;;;;;;;;20.49;63.37;101714.65;105768;1270;66126;-90
2023/09/14 11:41:35;;;;;;;;;;;;;;;20.49;63.08;101718.39;105781;1267;124536;-88
2023/09/14 11:44:02;;;;;;;;;;;;;;;20.41;63.20;101718.76;105529;1268;62158;-91
2023/09/14 11:46:29;;;;;;;;;;;;;;;20.44;63.28;101720.17;105504;1274;124804;-89
2023/09/14 11:48:55;;;;;;;;;;;;;;;20.56;63.31;101717.15;105645;1273;75510;-89
2023/09/14 11:51:25;;;;;;;;;;;;;;;20.72;63.44;101719.30;105832;1267;66377;-89
2023/09/14 11:53:54;;;;;;;;;;;;;;;20.82;63.29;101722.13;105691;1271;124626;-89
2023/09/14 11:56:20;;;;;;;;;;;;;;;20.77;62.63;101723.22;105859;1268;62330;-89
2023/09/14 11:59:00;;;;;;;;;;;;;;;20.58;62.49;101726.79;105685;1267;124805;-89
2023/09/14 12:01:26;;;;;;;;;;;;;;;20.54;62.85;101729.45;105847;1268;76280;-89
2023/09/14 12:03:53;;;;;;;;;;;;;;;20.65;63.05;101726.08;105757;1268;65001;-89
2023/09/14 12:06:34;;;;;;;;;;;;;;;20.75;62.80;101726.96;105796;1268;74711;-90
2023/09/14 12:09:07;;;;;;;;;;;;;;;20.80;62.45;101732.66;105587;1276;62084;-90
2023/09/14 12:11:42;;;;;;;;;;;;;;;20.64;62.23;101731.06;105692;1268;124477;-90
2023/09/14 12:14:09;;;;;;;;;;;;;;;20.47;62.32;101734.80;105553;1270;75521;-90
2023/09/14 12:16:38;;;;;;;;;;;;;;;20.46;62.52;101738.89;105689;1272;125078;-89
2023/09/14 12:19:11;;;;;;;;;;;;;;;20.50;62.51;101742.65;105804;1273;72767;-88
2023/09/14 12:21:38;;;;;;;;;;;;;;;20.52;62.42;101741.40;105567;1268;62241;-89
2023/09/14 12:24:05;;;;;;;;;;;;;;;20.41;62.06;101744.59;105607;1271;125259;-89
2023/09/14 12:26:31;;;;;;;;;;;;;;;20.24;61.97;101748.52;105827;1269;75543;-90